createdAt,value
2022-12-26T00:01:06.765Z,19.83
2022-12-26T00:03:33.927Z,21.20
2022-12-26T00:06:01.527Z,22.55
2022-12-26T00:08:28.562Z,18.62
2022-12-26T00:10:55.645Z,18.25
2022-12-26T00:13:40.262Z,21.95
2022-12-26T00:16:12.312Z,18.25
2022-12-26T00:18:40.310Z,18.37
2022-12-26T00:21:09.055Z,19.20
2022-12-26T00:23:36.776Z,18.35
2022-12-26T00:26:15.598Z,24.45
2022-12-26T00:28:43.654Z,20.83
2022-12-26T00:31:18.870Z,18.90
2022-12-26T00:33:46.499Z,22.23
2022-12-26T00:36:16.550Z,17.08
2022-12-26T00:38:44.694Z,23.27
2022-12-26T00:41:13.707Z,20.70
2022-12-26T00:43:41.680Z,18.20
2022-12-26T00:46:09.111Z,20.33
2022-12-26T00:48:36.184Z,22.85
2022-12-26T00:51:03.351Z,19.45
2022-12-26T00:53:30.647Z,20.27
2022-12-26T00:55:57.961Z,21.17
2022-12-26T00:58:27.466Z,22.02
2022-12-26T01:00:55.324Z,22.35
2022-12-26T01:03:22.740Z,21.77
2022-12-26T01:05:51.680Z,23.08
2022-12-26T01:08:24.099Z,19.80
2022-12-26T01:10:52.433Z,24.95
2022-12-26T01:13:20.043Z,18.40
2022-12-26T01:15:55.367Z,22.17
2022-12-26T01:18:22.522Z,21.23
2022-12-26T01:20:50.191Z,24.20
2022-12-26T01:23:17.699Z,19.52
2022-12-26T01:26:15.156Z,18.85
2022-12-26T01:28:31.930Z,20.75
2022-12-26T01:31:11.566Z,26.37
2022-12-26T01:33:39.211Z,22.83
2022-12-26T01:36:07.597Z,22.48
2022-12-26T01:38:35.214Z,22.85
2022-12-26T01:41:28.346Z,25.45
2022-12-26T01:44:02.673Z,21.80
2022-12-26T01:46:44.137Z,25.05
2022-12-26T01:49:29.452Z,23.70
2022-12-26T01:52:07.313Z,26.33
2022-12-26T01:54:42.340Z,22.55
2022-12-26T01:57:21.251Z,26.25
2022-12-26T01:59:50.072Z,26.12
2022-12-26T02:02:19.245Z,23.27
2022-12-26T02:05:07.841Z,24.95
2022-12-26T02:07:37.641Z,29.92
2022-12-26T02:12:38.685Z,22.65
2022-12-26T02:15:17.729Z,23.25
2022-12-26T02:17:45.299Z,26.65
2022-12-26T02:20:28.979Z,26.67
2022-12-26T02:23:04.919Z,28.92
2022-12-26T02:25:55.753Z,30.95
2022-12-26T02:28:35.722Z,28.95
2022-12-26T02:31:21.870Z,24.83
2022-12-26T02:33:51.524Z,27.98
2022-12-26T02:36:39.820Z,27.35
2022-12-26T02:39:47.697Z,27.67
2022-12-26T02:42:29.042Z,26.15
2022-12-26T02:45:22.647Z,34.38
2022-12-26T02:48:28.088Z,24.52
2022-12-26T02:51:23.198Z,28.38
2022-12-26T02:54:20.671Z,25.48
2022-12-26T02:57:12.645Z,27.95
2022-12-26T03:00:30.408Z,28.17
2022-12-26T03:03:22.274Z,29.75
2022-12-26T03:06:12.441Z,32.78
2022-12-26T03:09:11.681Z,32.85
2022-12-26T03:12:00.454Z,30.17
2022-12-26T03:14:31.089Z,26.90
2022-12-26T03:17:21.602Z,29.17
2022-12-26T03:20:03.489Z,27.50
2022-12-26T03:22:58.469Z,27.17
2022-12-26T03:25:43.897Z,26.20
2022-12-26T03:28:14.024Z,25.98
2022-12-26T03:30:50.932Z,24.35
2022-12-26T03:33:39.716Z,23.90
2022-12-26T03:36:08.669Z,26.65
2022-12-26T03:38:51.570Z,24.63
2022-12-26T03:41:55.481Z,21.95
2022-12-26T03:45:01.089Z,22.70
2022-12-26T03:48:15.170Z,24.15
2022-12-26T03:51:06.334Z,23.83
2022-12-26T03:54:15.000Z,23.98
2022-12-26T03:57:13.119Z,25.33
2022-12-26T04:00:18.184Z,23.27
2022-12-26T04:03:07.093Z,22.62
2022-12-26T04:05:56.216Z,23.27
2022-12-26T04:08:48.885Z,24.12
2022-12-26T04:11:38.163Z,21.20
2022-12-26T04:14:39.186Z,25.92
2022-12-26T04:17:50.031Z,25.42
2022-12-26T04:20:33.863Z,28.27
2022-12-26T04:23:47.461Z,31.60
2022-12-26T04:27:14.170Z,31.60
2022-12-26T04:30:00.586Z,35.78
2022-12-26T04:33:02.819Z,33.42
2022-12-26T04:35:54.040Z,37.88
2022-12-26T04:38:46.171Z,35.30
2022-12-26T04:41:33.835Z,27.13
2022-12-26T04:44:08.684Z,27.50
2022-12-26T04:46:39.309Z,26.27
2022-12-26T04:49:27.020Z,23.67
2022-12-26T04:51:56.511Z,24.65
2022-12-26T04:54:24.185Z,30.45
2022-12-26T04:56:51.200Z,29.67
2022-12-26T04:59:18.807Z,28.77
2022-12-26T05:02:04.327Z,25.00
2022-12-26T05:04:49.722Z,30.00
2022-12-26T05:07:49.216Z,32.38
2022-12-26T05:10:21.289Z,31.48
2022-12-26T05:12:48.555Z,29.87
2022-12-26T05:15:16.523Z,24.50
2022-12-26T05:18:02.812Z,30.00
2022-12-26T05:20:51.621Z,24.20
2022-12-26T05:23:39.874Z,27.27
2022-12-26T05:26:31.284Z,27.85
2022-12-26T05:29:00.571Z,26.92
2022-12-26T05:31:34.607Z,30.95
2022-12-26T05:34:11.071Z,25.98
2022-12-26T05:36:41.765Z,25.17
2022-12-26T05:39:09.417Z,27.58
2022-12-26T05:41:38.357Z,31.70
2022-12-26T05:44:05.916Z,33.20
2022-12-26T05:46:33.854Z,29.08
2022-12-26T05:49:03.282Z,28.62
2022-12-26T05:51:30.289Z,29.00
2022-12-26T05:53:57.286Z,32.30
2022-12-26T05:56:24.907Z,38.55
2022-12-26T05:58:56.476Z,32.70
2022-12-26T06:01:26.124Z,38.97
2022-12-26T06:03:57.429Z,31.80
2022-12-26T06:06:27.207Z,32.55
2022-12-26T06:08:55.685Z,32.78
2022-12-26T06:11:23.648Z,26.55
2022-12-26T06:13:50.566Z,28.27
2022-12-26T06:16:19.028Z,27.40
2022-12-26T06:18:47.046Z,33.65
2022-12-26T06:21:19.635Z,30.48
2022-12-26T06:23:47.273Z,31.20
2022-12-26T06:26:14.648Z,31.40
2022-12-26T06:28:43.707Z,30.17
2022-12-26T06:31:21.304Z,26.95
2022-12-26T06:33:50.953Z,27.75
2022-12-26T06:36:20.153Z,31.20
2022-12-26T06:38:47.125Z,29.05
2022-12-26T06:41:17.787Z,28.70
2022-12-26T06:43:45.577Z,32.38
2022-12-26T06:46:18.454Z,30.37
2022-12-26T06:48:46.137Z,34.42
2022-12-26T06:51:22.130Z,36.35
2022-12-26T06:53:50.815Z,89.70
2022-12-26T06:56:26.173Z,34.05
2022-12-26T06:58:58.573Z,27.85
2022-12-26T07:01:28.129Z,30.15
2022-12-26T07:03:55.932Z,33.60
2022-12-26T07:06:30.528Z,27.98
2022-12-26T07:09:03.636Z,30.08
2022-12-26T07:11:35.878Z,25.88
2022-12-26T07:14:03.587Z,27.17
2022-12-26T07:16:31.171Z,24.52
2022-12-26T07:18:58.988Z,31.08
2022-12-26T07:21:26.750Z,21.25
2022-12-26T07:23:54.749Z,21.33
2022-12-26T07:26:22.869Z,21.98
2022-12-26T07:28:53.618Z,23.02
2022-12-26T07:31:21.641Z,17.00
2022-12-26T07:33:55.491Z,19.17
2022-12-26T07:36:23.786Z,16.23
2022-12-26T07:38:51.531Z,15.80
2022-12-26T07:41:39.014Z,15.02
2022-12-26T07:44:06.761Z,18.75
2022-12-26T07:46:34.468Z,14.48
2022-12-26T07:49:02.091Z,14.87
2022-12-26T07:51:29.414Z,13.77
2022-12-26T07:53:56.708Z,16.20
2022-12-26T07:56:23.631Z,15.80
2022-12-26T07:58:54.147Z,16.30
2022-12-26T08:01:22.349Z,17.80
2022-12-26T08:03:50.448Z,17.73
2022-12-26T08:06:19.096Z,19.52
2022-12-26T08:08:51.181Z,15.32
2022-12-26T08:11:22.551Z,18.20
2022-12-26T08:13:50.141Z,14.57
2022-12-26T08:16:17.971Z,14.05
2022-12-26T08:18:45.442Z,21.67
2022-12-26T08:21:13.189Z,15.52
2022-12-26T08:23:40.712Z,16.17
2022-12-26T08:26:09.836Z,19.75
2022-12-26T08:28:37.302Z,19.92
2022-12-26T08:31:08.960Z,36.90
2022-12-26T08:33:36.163Z,36.85
2022-12-26T08:36:04.666Z,25.45
2022-12-26T08:38:33.740Z,20.92
2022-12-26T08:41:02.205Z,23.08
2022-12-26T08:43:45.413Z,32.35
2022-12-26T08:46:16.683Z,35.60
2022-12-26T08:48:45.221Z,29.70
2022-12-26T08:51:15.612Z,24.08
2022-12-26T08:53:42.808Z,23.12
2022-12-26T08:56:14.212Z,21.33
2022-12-26T08:58:44.600Z,20.58
2022-12-26T09:01:27.459Z,20.00
2022-12-26T09:03:56.502Z,20.15
2022-12-26T09:06:24.322Z,26.45
2022-12-26T09:08:52.273Z,18.95
2022-12-26T09:11:27.260Z,15.20
2022-12-26T09:13:55.678Z,16.33
2022-12-26T09:16:26.377Z,21.02
2022-12-26T09:18:59.444Z,18.98
2022-12-26T09:21:29.199Z,15.07
2022-12-26T09:24:00.864Z,17.70
2022-12-26T09:26:29.316Z,17.08
2022-12-26T09:28:57.259Z,16.67
2022-12-26T09:31:27.225Z,15.07
2022-12-26T09:33:54.265Z,14.23
2022-12-26T09:36:24.448Z,20.83
2022-12-26T09:38:51.823Z,14.87
2022-12-26T09:41:42.407Z,14.80
2022-12-26T09:44:47.809Z,16.23
2022-12-26T09:47:35.158Z,14.87
2022-12-26T09:50:05.368Z,13.18
2022-12-26T09:52:46.654Z,14.75
2022-12-26T09:55:36.994Z,13.60
2022-12-26T09:58:24.709Z,12.82
2022-12-26T10:01:01.404Z,14.85
2022-12-26T10:03:29.148Z,12.90
2022-12-26T10:06:02.231Z,12.90
2022-12-26T10:08:49.352Z,11.45
2022-12-26T10:11:32.705Z,13.13
2022-12-26T10:14:04.145Z,10.68
2022-12-26T10:16:33.953Z,10.70
2022-12-26T10:21:53.369Z,8.98
2022-12-26T10:24:26.343Z,8.65
2022-12-26T10:27:00.664Z,11.43
2022-12-26T10:29:34.059Z,10.25
2022-12-26T10:32:05.479Z,9.05
2022-12-26T10:34:47.748Z,9.65
2022-12-26T10:37:24.488Z,9.00
2022-12-26T10:40:09.959Z,8.85
2022-12-26T10:42:38.308Z,9.68
2022-12-26T10:45:17.635Z,10.90
2022-12-26T10:47:47.270Z,8.68
2022-12-26T10:50:27.698Z,9.63
2022-12-26T10:52:56.022Z,10.02
2022-12-26T10:55:31.789Z,9.15
2022-12-26T10:58:15.416Z,10.13
2022-12-26T11:00:42.551Z,9.18
2022-12-26T11:03:15.392Z,8.80
2022-12-26T11:06:09.145Z,7.47
2022-12-26T11:08:47.804Z,8.48
2022-12-26T11:11:25.000Z,7.45
2022-12-26T11:14:02.098Z,7.37
2022-12-26T11:16:32.581Z,6.20
2022-12-26T11:18:59.809Z,7.70
2022-12-26T11:21:32.458Z,7.10
2022-12-26T11:24:18.875Z,11.23
2022-12-26T11:26:46.811Z,6.95
2022-12-26T11:29:26.502Z,7.53
2022-12-26T11:32:02.935Z,6.65
2022-12-26T11:34:34.689Z,6.43
2022-12-26T11:37:04.208Z,5.65
2022-12-26T11:39:35.275Z,6.20
2022-12-26T11:42:10.377Z,6.53
2022-12-26T11:44:41.361Z,7.75
2022-12-26T11:47:13.345Z,7.30
2022-12-26T11:49:50.879Z,5.75
2022-12-26T11:52:53.166Z,6.75
2022-12-26T11:55:23.003Z,6.87
2022-12-26T11:58:09.106Z,6.20
2022-12-26T12:00:37.434Z,6.47
2022-12-26T12:03:13.071Z,5.72
2022-12-26T12:06:07.851Z,8.27
2022-12-26T12:09:06.318Z,5.78
2022-12-26T12:11:47.845Z,4.25
2022-12-26T12:14:52.670Z,7.68
2022-12-26T12:17:43.281Z,8.13
2022-12-26T12:20:10.211Z,4.43
2022-12-26T12:22:52.338Z,7.12
2022-12-26T12:25:54.393Z,8.13
2022-12-26T12:29:01.416Z,5.50
2022-12-26T12:31:28.365Z,5.87
2022-12-26T12:34:18.335Z,7.18
2022-12-26T12:37:27.651Z,6.45
2022-12-26T12:40:34.134Z,6.50
2022-12-26T12:43:20.226Z,7.20
2022-12-26T12:46:07.069Z,5.20
2022-12-26T12:49:03.908Z,7.40
2022-12-26T12:51:44.502Z,5.15
2022-12-26T12:54:45.756Z,4.47
2022-12-26T12:57:20.143Z,6.07
2022-12-26T13:00:13.946Z,5.15
2022-12-26T13:03:01.791Z,5.20
2022-12-26T13:06:03.885Z,6.50
2022-12-26T13:09:14.226Z,9.77
2022-12-26T13:11:56.715Z,5.93
2022-12-26T13:14:37.223Z,4.00
2022-12-26T13:17:13.326Z,5.15
2022-12-26T13:20:06.341Z,7.62
2022-12-26T13:23:04.550Z,8.02
2022-12-26T13:25:37.344Z,5.53
2022-12-26T13:28:12.128Z,4.55
2022-12-26T13:30:39.891Z,4.55
2022-12-26T13:33:07.119Z,5.93
2022-12-26T13:35:55.465Z,5.72
2022-12-26T13:38:24.667Z,8.60
2022-12-26T13:41:20.539Z,11.85
2022-12-26T13:44:02.286Z,5.35
2022-12-26T13:46:53.783Z,5.85
2022-12-26T13:49:37.391Z,7.62
2022-12-26T13:52:19.439Z,5.20
2022-12-26T13:54:50.896Z,7.22
2022-12-26T13:57:36.859Z,6.55
2022-12-26T14:00:07.198Z,6.37
2022-12-26T14:03:18.087Z,10.20
2022-12-26T14:05:40.032Z,5.47
2022-12-26T14:08:10.517Z,8.40
2022-12-26T14:10:55.988Z,6.28
2022-12-26T14:14:00.054Z,8.10
2022-12-26T14:16:45.602Z,26.23
2022-12-26T14:19:37.460Z,8.32
2022-12-26T14:22:26.055Z,11.60
2022-12-26T14:25:31.509Z,15.50
2022-12-26T14:28:22.167Z,15.00
2022-12-26T14:30:55.238Z,13.25
2022-12-26T14:33:54.513Z,16.17
2022-12-26T14:36:27.357Z,10.57
2022-12-26T14:39:10.463Z,11.38
2022-12-26T14:42:25.728Z,13.20
2022-12-26T14:44:58.123Z,10.98
2022-12-26T14:47:47.220Z,10.93
2022-12-26T14:50:32.743Z,10.80
2022-12-26T14:53:30.584Z,6.45
2022-12-26T14:56:14.442Z,6.18
2022-12-26T14:58:45.847Z,6.82
2022-12-26T15:01:17.442Z,8.68
2022-12-26T15:04:07.641Z,5.35
2022-12-26T15:09:38.129Z,6.65
2022-12-26T15:12:05.950Z,8.90
2022-12-26T15:14:58.041Z,11.32
2022-12-26T15:17:51.152Z,10.90
2022-12-26T15:20:37.017Z,8.77
2022-12-26T15:23:19.462Z,7.90
2022-12-26T15:26:08.094Z,8.40
2022-12-26T15:28:56.879Z,8.18
2022-12-26T15:31:36.884Z,9.98
2022-12-26T15:34:32.044Z,56.65
2022-12-26T15:37:03.299Z,39.03
2022-12-26T15:39:56.664Z,31.00
2022-12-26T15:42:48.066Z,40.38
2022-12-26T15:45:33.697Z,50.03
2022-12-26T15:48:25.624Z,46.60
2022-12-26T15:50:58.024Z,32.35
2022-12-26T15:54:00.342Z,33.45
2022-12-26T15:56:36.304Z,34.33
2022-12-26T15:59:09.282Z,43.67
2022-12-26T16:01:45.621Z,118.35
2022-12-26T16:04:21.253Z,83.87
2022-12-26T16:07:22.391Z,179.70
2022-12-26T16:09:55.323Z,79.90
2022-12-26T16:12:25.423Z,58.15
2022-12-26T16:15:25.413Z,64.70
2022-12-26T16:17:52.594Z,55.55
2022-12-26T16:20:45.374Z,66.47
2022-12-26T16:23:16.708Z,72.53
2022-12-26T16:25:51.624Z,80.65
2022-12-26T16:28:27.028Z,79.90
2022-12-26T16:30:54.273Z,91.37
2022-12-26T16:33:23.570Z,97.22
2022-12-26T16:35:57.547Z,95.25
2022-12-26T16:38:32.330Z,81.03
2022-12-26T16:41:00.970Z,120.82
2022-12-26T16:43:34.817Z,116.03
2022-12-26T16:46:06.406Z,85.57
2022-12-26T16:48:38.413Z,23.80
2022-12-26T16:51:13.789Z,33.85
2022-12-26T16:53:40.923Z,20.88
2022-12-26T16:56:28.473Z,42.92
2022-12-26T16:59:06.196Z,84.65
2022-12-26T17:01:34.849Z,61.92
2022-12-26T17:04:17.513Z,69.45
2022-12-26T17:06:51.621Z,87.18
2022-12-26T17:09:19.481Z,86.65
2022-12-26T17:12:03.029Z,80.68
2022-12-26T17:14:37.654Z,96.75
2022-12-26T17:17:28.009Z,97.72
2022-12-26T17:19:57.713Z,101.32
2022-12-26T17:22:32.172Z,120.50
2022-12-26T17:25:17.859Z,117.37
2022-12-26T17:27:45.842Z,129.00
2022-12-26T17:30:29.747Z,135.32
2022-12-26T17:33:03.201Z,112.18
2022-12-26T17:36:21.287Z,122.18
2022-12-26T17:38:26.462Z,105.00
2022-12-26T17:41:04.783Z,106.12
2022-12-26T17:43:39.522Z,110.63
2022-12-26T17:46:09.453Z,111.68
2022-12-26T17:51:09.356Z,101.82
2022-12-26T17:53:42.226Z,83.22
2022-12-26T17:56:18.197Z,76.18
2022-12-26T17:58:45.312Z,112.97
2022-12-26T18:01:17.449Z,109.63
2022-12-26T18:03:47.535Z,107.53
2022-12-26T18:06:17.278Z,54.83
2022-12-26T18:08:44.801Z,74.72
2022-12-26T18:11:13.621Z,101.65
2022-12-26T18:13:41.094Z,109.85
2022-12-26T18:16:10.855Z,158.90
2022-12-26T18:18:43.584Z,143.37
2022-12-26T18:21:13.011Z,143.85
2022-12-26T18:23:41.033Z,133.48
2022-12-26T18:26:17.900Z,129.43
2022-12-26T18:28:45.617Z,115.60
2022-12-26T18:31:16.847Z,124.15
2022-12-26T18:33:44.117Z,119.82
2022-12-26T18:36:17.320Z,294.70
2022-12-26T18:38:44.498Z,138.37
2022-12-26T18:41:20.116Z,138.02
2022-12-26T18:43:48.044Z,121.47
2022-12-26T18:46:23.921Z,117.60
2022-12-26T18:48:54.135Z,128.02
2022-12-26T18:51:21.991Z,136.45
2022-12-26T18:53:49.102Z,136.88
2022-12-26T18:56:19.233Z,138.18
2022-12-26T18:58:51.127Z,124.90
2022-12-26T19:01:21.337Z,126.62
2022-12-26T19:03:49.830Z,119.65
2022-12-26T19:06:25.946Z,120.35
2022-12-26T19:08:53.049Z,119.53
2022-12-26T19:11:20.069Z,114.68
2022-12-26T19:13:47.128Z,118.85
2022-12-26T19:16:14.170Z,129.80
2022-12-26T19:18:41.155Z,112.88
2022-12-26T19:21:13.388Z,118.10
2022-12-26T19:23:40.886Z,124.97
2022-12-26T19:26:17.364Z,120.15
2022-12-26T19:28:45.343Z,112.28
2022-12-26T19:31:15.609Z,162.48
2022-12-26T19:33:43.007Z,130.65
2022-12-26T19:36:10.877Z,130.07
2022-12-26T19:38:38.296Z,196.12
2022-12-26T19:41:07.953Z,149.23
2022-12-26T19:43:34.857Z,115.05
2022-12-26T19:46:03.856Z,106.60
2022-12-26T19:48:32.835Z,77.70
2022-12-26T19:51:11.614Z,63.38
2022-12-26T19:53:40.426Z,56.33
2022-12-26T19:56:17.277Z,62.05
2022-12-26T19:58:45.119Z,54.42
2022-12-26T20:01:16.527Z,42.80
2022-12-26T20:03:44.998Z,49.50
2022-12-26T20:06:18.052Z,51.95
2022-12-26T20:08:46.562Z,47.80
2022-12-26T20:11:17.485Z,52.58
2022-12-26T20:13:45.938Z,51.05
2022-12-26T20:16:45.963Z,50.88
2022-12-26T20:19:06.067Z,69.57
2022-12-26T20:21:33.272Z,61.10
2022-12-26T20:24:03.047Z,52.92
2022-12-26T20:26:30.262Z,51.88
2022-12-26T20:29:03.471Z,44.85
2022-12-26T20:31:32.949Z,42.13
2022-12-26T20:34:00.984Z,57.92
2022-12-26T20:36:34.231Z,59.72
2022-12-26T20:39:05.268Z,51.13
2022-12-26T20:41:34.583Z,52.35
2022-12-26T20:44:01.671Z,59.72
2022-12-26T20:46:36.099Z,67.97
2022-12-26T20:49:04.994Z,69.12
2022-12-26T20:51:37.421Z,96.05
2022-12-26T20:54:09.238Z,67.70
2022-12-26T20:56:37.427Z,126.68
2022-12-26T20:59:05.776Z,103.00
2022-12-26T21:01:32.926Z,165.37
